sensor_id;sensor_type;location;lat;lon;timestamp;P1;durP1;ratioP1;P2;durP2;ratioP2
61188;SDS011;47054;39.716;2.904;2023-05-07T00:01:12;46.58;;;24.40;;
61188;SDS011;47054;39.716;2.904;2023-05-07T00:03:57;50.10;;;25.13;;
61188;SDS011;47054;39.716;2.904;2023-05-07T00:06:41;50.75;;;26.50;;
61188;SDS011;47054;39.716;2.904;2023-05-07T00:09:26;50.40;;;25.90;;
61188;SDS011;47054;39.716;2.904;2023-05-07T00:12:10;56.22;;;27.45;;
61188;SDS011;47054;39.716;2.904;2023-05-07T00:14:55;52.97;;;27.05;;
61188;SDS011;47054;39.716;2.904;2023-05-07T00:17:39;53.42;;;28.77;;
61188;SDS011;47054;39.716;2.904;2023-05-07T00:20:24;54.08;;;28.55;;
61188;SDS011;47054;39.716;2.904;2023-05-07T00:23:09;61.85;;;29.40;;
61188;SDS011;47054;39.716;2.904;2023-05-07T00:25:53;56.13;;;28.80;;
61188;SDS011;47054;39.716;2.904;2023-05-07T00:28:38;61.15;;;30.60;;
61188;SDS011;47054;39.716;2.904;2023-05-07T00:31:23;58.80;;;28.90;;
61188;SDS011;47054;39.716;2.904;2023-05-07T00:34:07;60.80;;;30.60;;
61188;SDS011;47054;39.716;2.904;2023-05-07T00:36:52;57.75;;;29.17;;
61188;SDS011;47054;39.716;2.904;2023-05-07T00:39:36;61.42;;;29.98;;
61188;SDS011;47054;39.716;2.904;2023-05-07T00:42:21;60.67;;;30.42;;
61188;SDS011;47054;39.716;2.904;2023-05-07T00:45:05;66.38;;;32.85;;
61188;SDS011;47054;39.716;2.904;2023-05-07T00:47:53;66.53;;;33.85;;
61188;SDS011;47054;39.716;2.904;2023-05-07T00:50:43;74.68;;;35.20;;
61188;SDS011;47054;39.716;2.904;2023-05-07T00:53:28;77.05;;;38.03;;
61188;SDS011;47054;39.716;2.904;2023-05-07T00:56:14;68.45;;;33.97;;
61188;SDS011;47054;39.716;2.904;2023-05-07T00:59:00;66.25;;;35.00;;
61188;SDS011;47054;39.716;2.904;2023-05-07T01:01:46;71.93;;;35.38;;
61188;SDS011;47054;39.716;2.904;2023-05-07T01:04:31;66.70;;;32.95;;
61188;SDS011;47054;39.716;2.904;2023-05-07T01:07:15;67.40;;;32.70;;
61188;SDS011;47054;39.716;2.904;2023-05-07T01:10:00;72.70;;;35.72;;
61188;SDS011;47054;39.716;2.904;2023-05-07T01:12:46;71.30;;;35.28;;
61188;SDS011;47054;39.716;2.904;2023-05-07T01:15:32;69.55;;;34.90;;
61188;SDS011;47054;39.716;2.904;2023-05-07T01:18:16;66.80;;;34.15;;
61188;SDS011;47054;39.716;2.904;2023-05-07T01:21:01;66.75;;;33.00;;
61188;SDS011;47054;39.716;2.904;2023-05-07T01:23:49;67.72;;;33.13;;
61188;SDS011;47054;39.716;2.904;2023-05-07T01:26:34;66.15;;;31.90;;
61188;SDS011;47054;39.716;2.904;2023-05-07T01:29:18;67.15;;;32.13;;
61188;SDS011;47054;39.716;2.904;2023-05-07T01:32:04;59.00;;;30.50;;
61188;SDS011;47054;39.716;2.904;2023-05-07T01:34:50;63.13;;;31.55;;
61188;SDS011;47054;39.716;2.904;2023-05-07T01:37:36;61.42;;;30.50;;
61188;SDS011;47054;39.716;2.904;2023-05-07T01:40:22;61.35;;;30.98;;
61188;SDS011;47054;39.716;2.904;2023-05-07T01:43:08;59.97;;;29.88;;
61188;SDS011;47054;39.716;2.904;2023-05-07T01:45:54;53.63;;;27.27;;
61188;SDS011;47054;39.716;2.904;2023-05-07T01:48:39;54.05;;;27.30;;
61188;SDS011;47054;39.716;2.904;2023-05-07T01:51:25;51.75;;;25.98;;
61188;SDS011;47054;39.716;2.904;2023-05-07T01:54:10;52.47;;;26.70;;
61188;SDS011;47054;39.716;2.904;2023-05-07T01:56:56;49.70;;;24.50;;
61188;SDS011;47054;39.716;2.904;2023-05-07T01:59:40;47.85;;;23.20;;
61188;SDS011;47054;39.716;2.904;2023-05-07T02:02:25;46.20;;;23.40;;
61188;SDS011;47054;39.716;2.904;2023-05-07T02:05:11;44.28;;;23.50;;
61188;SDS011;47054;39.716;2.904;2023-05-07T02:07:57;43.95;;;22.02;;
61188;SDS011;47054;39.716;2.904;2023-05-07T02:10:44;45.80;;;23.35;;
61188;SDS011;47054;39.716;2.904;2023-05-07T02:13:29;43.03;;;22.38;;
61188;SDS011;47054;39.716;2.904;2023-05-07T02:16:16;42.70;;;22.33;;
61188;SDS011;47054;39.716;2.904;2023-05-07T02:19:01;42.70;;;21.63;;
61188;SDS011;47054;39.716;2.904;2023-05-07T02:21:46;42.00;;;21.63;;
61188;SDS011;47054;39.716;2.904;2023-05-07T02:24:32;41.60;;;21.60;;
61188;SDS011;47054;39.716;2.904;2023-05-07T02:27:16;38.17;;;20.38;;
61188;SDS011;47054;39.716;2.904;2023-05-07T02:30:02;39.97;;;19.15;;
61188;SDS011;47054;39.716;2.904;2023-05-07T02:32:47;35.15;;;19.08;;
61188;SDS011;47054;39.716;2.904;2023-05-07T02:35:32;32.60;;;17.70;;
61188;SDS011;47054;39.716;2.904;2023-05-07T02:38:17;32.40;;;17.02;;
61188;SDS011;47054;39.716;2.904;2023-05-07T02:41:02;33.28;;;16.95;;
61188;SDS011;47054;39.716;2.904;2023-05-07T02:43:46;33.50;;;17.27;;
61188;SDS011;47054;39.716;2.904;2023-05-07T02:46:31;31.73;;;16.85;;
61188;SDS011;47054;39.716;2.904;2023-05-07T02:49:21;31.38;;;15.82;;
61188;SDS011;47054;39.716;2.904;2023-05-07T02:52:06;31.55;;;16.58;;
61188;SDS011;47054;39.716;2.904;2023-05-07T02:54:51;30.45;;;15.32;;
61188;SDS011;47054;39.716;2.904;2023-05-07T02:57:35;31.00;;;15.50;;
61188;SDS011;47054;39.716;2.904;2023-05-07T03:00:20;29.60;;;15.30;;
61188;SDS011;47054;39.716;2.904;2023-05-07T03:03:18;29.27;;;14.63;;
61188;SDS011;47054;39.716;2.904;2023-05-07T03:06:03;26.13;;;13.90;;
61188;SDS011;47054;39.716;2.904;2023-05-07T03:08:48;27.52;;;14.85;;
61188;SDS011;47054;39.716;2.904;2023-05-07T03:11:32;23.95;;;13.02;;
61188;SDS011;47054;39.716;2.904;2023-05-07T03:14:17;25.75;;;13.57;;
61188;SDS011;47054;39.716;2.904;2023-05-07T03:17:02;24.52;;;12.93;;
61188;SDS011;47054;39.716;2.904;2023-05-07T03:19:46;22.00;;;12.55;;
61188;SDS011;47054;39.716;2.904;2023-05-07T03:22:31;23.02;;;12.98;;
61188;SDS011;47054;39.716;2.904;2023-05-07T03:25:16;22.30;;;12.07;;
61188;SDS011;47054;39.716;2.904;2023-05-07T03:28:00;23.67;;;12.70;;
61188;SDS011;47054;39.716;2.904;2023-05-07T03:30:54;22.65;;;13.00;;
61188;SDS011;47054;39.716;2.904;2023-05-07T03:33:48;22.42;;;11.90;;
61188;SDS011;47054;39.716;2.904;2023-05-07T03:36:38;19.60;;;10.68;;
61188;SDS011;47054;39.716;2.904;2023-05-07T03:39:29;19.92;;;10.85;;
61188;SDS011;47054;39.716;2.904;2023-05-07T03:42:14;21.13;;;11.52;;
61188;SDS011;47054;39.716;2.904;2023-05-07T03:44:59;19.48;;;10.60;;
61188;SDS011;47054;39.716;2.904;2023-05-07T03:47:44;18.95;;;10.10;;
61188;SDS011;47054;39.716;2.904;2023-05-07T03:50:32;19.55;;;10.68;;
61188;SDS011;47054;39.716;2.904;2023-05-07T03:53:17;18.98;;;10.50;;
61188;SDS011;47054;39.716;2.904;2023-05-07T03:56:02;19.98;;;10.30;;
61188;SDS011;47054;39.716;2.904;2023-05-07T03:58:51;20.08;;;10.68;;
61188;SDS011;47054;39.716;2.904;2023-05-07T04:01:36;16.58;;;9.55;;
61188;SDS011;47054;39.716;2.904;2023-05-07T04:04:21;17.00;;;9.50;;
61188;SDS011;47054;39.716;2.904;2023-05-07T04:07:06;17.58;;;9.45;;
61188;SDS011;47054;39.716;2.904;2023-05-07T04:09:56;17.42;;;9.05;;
61188;SDS011;47054;39.716;2.904;2023-05-07T04:12:41;17.73;;;8.98;;
61188;SDS011;47054;39.716;2.904;2023-05-07T04:15:27;17.02;;;8.57;;
61188;SDS011;47054;39.716;2.904;2023-05-07T04:18:13;17.17;;;9.10;;
61188;SDS011;47054;39.716;2.904;2023-05-07T04:21:00;15.98;;;8.38;;
61188;SDS011;47054;39.716;2.904;2023-05-07T04:23:46;15.20;;;8.27;;
61188;SDS011;47054;39.716;2.904;2023-05-07T04:26:31;16.20;;;8.40;;
61188;SDS011;47054;39.716;2.904;2023-05-07T04:29:16;16.92;;;8.77;;
61188;SDS011;47054;39.716;2.904;2023-05-07T04:32:01;15.50;;;8.13;;
61188;SDS011;47054;39.716;2.904;2023-05-07T04:34:46;15.80;;;8.77;;
61188;SDS011;47054;39.716;2.904;2023-05-07T04:37:34;15.45;;;8.82;;
61188;SDS011;47054;39.716;2.904;2023-05-07T04:40:19;13.77;;;7.50;;
61188;SDS011;47054;39.716;2.904;2023-05-07T04:43:04;14.70;;;8.40;;
61188;SDS011;47054;39.716;2.904;2023-05-07T04:45:53;14.85;;;8.07;;
61188;SDS011;47054;39.716;2.904;2023-05-07T04:48:41;14.13;;;7.95;;
61188;SDS011;47054;39.716;2.904;2023-05-07T04:51:26;13.07;;;7.32;;
61188;SDS011;47054;39.716;2.904;2023-05-07T04:54:12;14.95;;;7.95;;
61188;SDS011;47054;39.716;2.904;2023-05-07T04:56:56;14.98;;;7.65;;
61188;SDS011;47054;39.716;2.904;2023-05-07T04:59:41;13.25;;;7.40;;
61188;SDS011;47054;39.716;2.904;2023-05-07T05:02:26;11.48;;;7.30;;
61188;SDS011;47054;39.716;2.904;2023-05-07T05:05:11;13.70;;;7.45;;
61188;SDS011;47054;39.716;2.904;2023-05-07T05:07:56;12.23;;;6.70;;
61188;SDS011;47054;39.716;2.904;2023-05-07T05:10:41;13.90;;;6.93;;
61188;SDS011;47054;39.716;2.904;2023-05-07T05:13:28;12.50;;;6.95;;
61188;SDS011;47054;39.716;2.904;2023-05-07T05:16:13;11.48;;;6.55;;
61188;SDS011;47054;39.716;2.904;2023-05-07T05:18:59;13.73;;;6.75;;
61188;SDS011;47054;39.716;2.904;2023-05-07T05:21:44;11.20;;;6.30;;
61188;SDS011;47054;39.716;2.904;2023-05-07T05:24:30;11.98;;;6.45;;
61188;SDS011;47054;39.716;2.904;2023-05-07T05:27:15;10.95;;;6.03;;
61188;SDS011;47054;39.716;2.904;2023-05-07T05:30:00;10.13;;;5.72;;
61188;SDS011;47054;39.716;2.904;2023-05-07T05:32:46;11.90;;;5.95;;
61188;SDS011;47054;39.716;2.904;2023-05-07T05:35:30;10.15;;;5.65;;
61188;SDS011;47054;39.716;2.904;2023-05-07T05:38:16;9.75;;;5.82;;
61188;SDS011;47054;39.716;2.904;2023-05-07T05:41:01;9.23;;;4.90;;
61188;SDS011;47054;39.716;2.904;2023-05-07T05:43:48;10.65;;;5.55;;
61188;SDS011;47054;39.716;2.904;2023-05-07T05:46:32;8.85;;;5.03;;
61188;SDS011;47054;39.716;2.904;2023-05-07T05:49:17;8.95;;;5.30;;
61188;SDS011;47054;39.716;2.904;2023-05-07T05:52:02;10.57;;;5.22;;
61188;SDS011;47054;39.716;2.904;2023-05-07T05:54:47;9.00;;;4.80;;
61188;SDS011;47054;39.716;2.904;2023-05-07T05:57:32;9.25;;;5.15;;
61188;SDS011;47054;39.716;2.904;2023-05-07T06:00:17;8.75;;;4.93;;
61188;SDS011;47054;39.716;2.904;2023-05-07T06:03:04;8.15;;;4.75;;
61188;SDS011;47054;39.716;2.904;2023-05-07T06:05:49;7.80;;;4.63;;
61188;SDS011;47054;39.716;2.904;2023-05-07T06:08:35;8.40;;;4.53;;
61188;SDS011;47054;39.716;2.904;2023-05-07T06:11:21;8.25;;;4.65;;
61188;SDS011;47054;39.716;2.904;2023-05-07T06:14:06;8.15;;;4.70;;
61188;SDS011;47054;39.716;2.904;2023-05-07T06:16:51;10.25;;;4.53;;
61188;SDS011;47054;39.716;2.904;2023-05-07T06:19:36;6.90;;;4.15;;
61188;SDS011;47054;39.716;2.904;2023-05-07T06:22:21;7.43;;;4.20;;
61188;SDS011;47054;39.716;2.904;2023-05-07T06:25:06;7.70;;;4.50;;
61188;SDS011;47054;39.716;2.904;2023-05-07T06:27:51;9.60;;;4.80;;
61188;SDS011;47054;39.716;2.904;2023-05-07T06:30:36;7.28;;;4.28;;
61188;SDS011;47054;39.716;2.904;2023-05-07T06:33:21;8.13;;;4.15;;
61188;SDS011;47054;39.716;2.904;2023-05-07T06:36:06;6.88;;;4.03;;
61188;SDS011;47054;39.716;2.904;2023-05-07T06:38:51;7.40;;;4.15;;
61188;SDS011;47054;39.716;2.904;2023-05-07T06:41:35;7.78;;;4.30;;
61188;SDS011;47054;39.716;2.904;2023-05-07T06:44:26;7.63;;;4.30;;
61188;SDS011;47054;39.716;2.904;2023-05-07T06:47:21;6.72;;;3.80;;
61188;SDS011;47054;39.716;2.904;2023-05-07T06:50:10;7.07;;;3.85;;
61188;SDS011;47054;39.716;2.904;2023-05-07T06:52:55;6.13;;;3.67;;
61188;SDS011;47054;39.716;2.904;2023-05-07T06:55:39;6.95;;;4.30;;
61188;SDS011;47054;39.716;2.904;2023-05-07T06:58:24;5.00;;;3.22;;
61188;SDS011;47054;39.716;2.904;2023-05-07T07:01:09;6.93;;;4.03;;
61188;SDS011;47054;39.716;2.904;2023-05-07T07:03:55;7.68;;;3.95;;
61188;SDS011;47054;39.716;2.904;2023-05-07T07:06:41;5.72;;;3.47;;
61188;SDS011;47054;39.716;2.904;2023-05-07T07:09:28;7.68;;;3.72;;
61188;SDS011;47054;39.716;2.904;2023-05-07T07:12:13;6.88;;;3.80;;
61188;SDS011;47054;39.716;2.904;2023-05-07T07:15:00;5.35;;;3.15;;
61188;SDS011;47054;39.716;2.904;2023-05-07T07:17:47;5.68;;;3.42;;
61188;SDS011;47054;39.716;2.904;2023-05-07T07:20:33;6.10;;;3.40;;
61188;SDS011;47054;39.716;2.904;2023-05-07T07:23:18;6.60;;;3.78;;
61188;SDS011;47054;39.716;2.904;2023-05-07T07:26:03;6.35;;;3.95;;
61188;SDS011;47054;39.716;2.904;2023-05-07T07:28:47;5.80;;;3.47;;
61188;SDS011;47054;39.716;2.904;2023-05-07T07:31:35;6.88;;;3.47;;
61188;SDS011;47054;39.716;2.904;2023-05-07T07:34:20;5.90;;;3.28;;
61188;SDS011;47054;39.716;2.904;2023-05-07T07:37:06;5.35;;;3.20;;
61188;SDS011;47054;39.716;2.904;2023-05-07T07:39:52;6.30;;;3.20;;
61188;SDS011;47054;39.716;2.904;2023-05-07T07:42:37;6.03;;;3.17;;
61188;SDS011;47054;39.716;2.904;2023-05-07T07:45:22;5.78;;;3.22;;
61188;SDS011;47054;39.716;2.904;2023-05-07T07:48:08;5.55;;;3.05;;
61188;SDS011;47054;39.716;2.904;2023-05-07T07:50:55;5.28;;;2.92;;
61188;SDS011;47054;39.716;2.904;2023-05-07T07:53:40;6.30;;;3.40;;
61188;SDS011;47054;39.716;2.904;2023-05-07T07:56:25;4.80;;;2.92;;
61188;SDS011;47054;39.716;2.904;2023-05-07T07:59:09;5.25;;;3.30;;
61188;SDS011;47054;39.716;2.904;2023-05-07T08:01:57;6.55;;;3.30;;
61188;SDS011;47054;39.716;2.904;2023-05-07T08:04:43;5.03;;;2.95;;
61188;SDS011;47054;39.716;2.904;2023-05-07T08:07:29;5.10;;;3.05;;
61188;SDS011;47054;39.716;2.904;2023-05-07T08:10:14;4.22;;;2.72;;
61188;SDS011;47054;39.716;2.904;2023-05-07T08:13:06;4.93;;;3.13;;
61188;SDS011;47054;39.716;2.904;2023-05-07T08:15:53;5.50;;;3.00;;
61188;SDS011;47054;39.716;2.904;2023-05-07T08:18:37;5.68;;;3.10;;
61188;SDS011;47054;39.716;2.904;2023-05-07T08:21:22;6.07;;;3.17;;
61188;SDS011;47054;39.716;2.904;2023-05-07T08:24:07;4.70;;;2.70;;
61188;SDS011;47054;39.716;2.904;2023-05-07T08:26:52;5.88;;;3.03;;
61188;SDS011;47054;39.716;2.904;2023-05-07T08:29:37;5.18;;;2.90;;
61188;SDS011;47054;39.716;2.904;2023-05-07T08:32:22;4.22;;;2.72;;
61188;SDS011;47054;39.716;2.904;2023-05-07T08:35:07;4.53;;;2.70;;
61188;SDS011;47054;39.716;2.904;2023-05-07T08:37:52;4.28;;;2.58;;
61188;SDS011;47054;39.716;2.904;2023-05-07T08:40:38;4.75;;;2.80;;
61188;SDS011;47054;39.716;2.904;2023-05-07T08:43:26;4.13;;;2.60;;
61188;SDS011;47054;39.716;2.904;2023-05-07T08:46:13;5.57;;;2.78;;
61188;SDS011;47054;39.716;2.904;2023-05-07T08:49:01;4.18;;;2.72;;
61188;SDS011;47054;39.716;2.904;2023-05-07T08:51:47;4.55;;;2.38;;
61188;SDS011;47054;39.716;2.904;2023-05-07T08:54:31;5.25;;;2.90;;
61188;SDS011;47054;39.716;2.904;2023-05-07T08:57:17;4.95;;;2.88;;
61188;SDS011;47054;39.716;2.904;2023-05-07T09:00:04;4.40;;;2.72;;
61188;SDS011;47054;39.716;2.904;2023-05-07T09:02:53;3.90;;;2.40;;
61188;SDS011;47054;39.716;2.904;2023-05-07T09:05:38;5.43;;;2.70;;
61188;SDS011;47054;39.716;2.904;2023-05-07T09:08:26;5.00;;;2.67;;
61188;SDS011;47054;39.716;2.904;2023-05-07T09:11:13;4.50;;;2.40;;
61188;SDS011;47054;39.716;2.904;2023-05-07T09:13:58;4.97;;;2.72;;
61188;SDS011;47054;39.716;2.904;2023-05-07T09:16:52;4.57;;;2.45;;
61188;SDS011;47054;39.716;2.904;2023-05-07T09:19:37;5.55;;;2.70;;
61188;SDS011;47054;39.716;2.904;2023-05-07T09:22:25;4.28;;;2.45;;
61188;SDS011;47054;39.716;2.904;2023-05-07T09:25:21;6.00;;;3.13;;
61188;SDS011;47054;39.716;2.904;2023-05-07T09:28:12;4.63;;;2.75;;
61188;SDS011;47054;39.716;2.904;2023-05-07T09:30:57;3.95;;;2.47;;
61188;SDS011;47054;39.716;2.904;2023-05-07T09:33:41;10.13;;;2.78;;
61188;SDS011;47054;39.716;2.904;2023-05-07T09:36:28;4.43;;;2.50;;
61188;SDS011;47054;39.716;2.904;2023-05-07T09:39:14;4.90;;;2.38;;
61188;SDS011;47054;39.716;2.904;2023-05-07T09:41:59;6.05;;;2.55;;
61188;SDS011;47054;39.716;2.904;2023-05-07T09:44:50;5.87;;;2.43;;
61188;SDS011;47054;39.716;2.904;2023-05-07T09:47:39;4.40;;;2.55;;
61188;SDS011;47054;39.716;2.904;2023-05-07T09:50:30;4.82;;;2.53;;
61188;SDS011;47054;39.716;2.904;2023-05-07T09:53:20;4.57;;;2.55;;
61188;SDS011;47054;39.716;2.904;2023-05-07T09:56:07;6.90;;;2.60;;
61188;SDS011;47054;39.716;2.904;2023-05-07T09:58:56;6.18;;;2.33;;
61188;SDS011;47054;39.716;2.904;2023-05-07T10:01:44;3.40;;;2.30;;
61188;SDS011;47054;39.716;2.904;2023-05-07T10:04:30;5.38;;;2.75;;
61188;SDS011;47054;39.716;2.904;2023-05-07T10:07:16;3.83;;;2.30;;
61188;SDS011;47054;39.716;2.904;2023-05-07T10:10:04;4.63;;;2.50;;
61188;SDS011;47054;39.716;2.904;2023-05-07T10:12:54;4.18;;;2.45;;
61188;SDS011;47054;39.716;2.904;2023-05-07T10:18:32;5.60;;;2.70;;
61188;SDS011;47054;39.716;2.904;2023-05-07T10:21:23;5.78;;;2.47;;
61188;SDS011;47054;39.716;2.904;2023-05-07T10:24:36;5.18;;;2.70;;
61188;SDS011;47054;39.716;2.904;2023-05-07T10:27:29;5.65;;;2.40;;
61188;SDS011;47054;39.716;2.904;2023-05-07T10:33:39;4.22;;;2.17;;
61188;SDS011;47054;39.716;2.904;2023-05-07T10:36:24;5.35;;;2.33;;
61188;SDS011;47054;39.716;2.904;2023-05-07T10:39:11;4.72;;;2.40;;
61188;SDS011;47054;39.716;2.904;2023-05-07T10:41:57;3.22;;;2.20;;
61188;SDS011;47054;39.716;2.904;2023-05-07T10:44:52;3.70;;;2.30;;
61188;SDS011;47054;39.716;2.904;2023-05-07T10:51:20;5.68;;;2.63;;
61188;SDS011;47054;39.716;2.904;2023-05-07T10:56:58;10.60;;;3.22;;
61188;SDS011;47054;39.716;2.904;2023-05-07T11:09:17;15.52;;;7.95;;
61188;SDS011;47054;39.716;2.904;2023-05-07T11:12:12;16.50;;;7.55;;
61188;SDS011;47054;39.716;2.904;2023-05-07T11:15:08;16.75;;;8.85;;
61188;SDS011;47054;39.716;2.904;2023-05-07T11:17:56;15.68;;;8.43;;
61188;SDS011;47054;39.716;2.904;2023-05-07T11:20:49;21.75;;;10.95;;
61188;SDS011;47054;39.716;2.904;2023-05-07T11:26:46;15.27;;;7.28;;
61188;SDS011;47054;39.716;2.904;2023-05-07T11:29:33;13.70;;;7.20;;
61188;SDS011;47054;39.716;2.904;2023-05-07T11:32:29;16.63;;;8.60;;
61188;SDS011;47054;39.716;2.904;2023-05-07T11:35:16;12.90;;;6.43;;
61188;SDS011;47054;39.716;2.904;2023-05-07T11:38:03;12.45;;;5.40;;
61188;SDS011;47054;39.716;2.904;2023-05-07T11:40:55;11.35;;;6.32;;
61188;SDS011;47054;39.716;2.904;2023-05-07T11:43:57;12.00;;;6.25;;
61188;SDS011;47054;39.716;2.904;2023-05-07T11:46:42;13.52;;;6.80;;
61188;SDS011;47054;39.716;2.904;2023-05-07T11:49:28;13.13;;;5.93;;
61188;SDS011;47054;39.716;2.904;2023-05-07T11:52:14;14.50;;;7.22;;
61188;SDS011;47054;39.716;2.904;2023-05-07T11:55:01;15.68;;;7.72;;
61188;SDS011;47054;39.716;2.904;2023-05-07T11:57:47;13.90;;;7.32;;
61188;SDS011;47054;39.716;2.904;2023-05-07T12:00:32;16.10;;;8.48;;
61188;SDS011;47054;39.716;2.904;2023-05-07T12:03:16;13.95;;;8.13;;
61188;SDS011;47054;39.716;2.904;2023-05-07T12:06:22;17.88;;;9.23;;
61188;SDS011;47054;39.716;2.904;2023-05-07T12:09:06;17.23;;;9.15;;
61188;SDS011;47054;39.716;2.904;2023-05-07T12:11:55;16.15;;;8.60;;
61188;SDS011;47054;39.716;2.904;2023-05-07T12:14:41;17.40;;;8.25;;
61188;SDS011;47054;39.716;2.904;2023-05-07T12:17:26;18.73;;;8.30;;
61188;SDS011;47054;39.716;2.904;2023-05-07T12:20:11;19.77;;;9.00;;
61188;SDS011;47054;39.716;2.904;2023-05-07T12:22:56;16.55;;;8.85;;
61188;SDS011;47054;39.716;2.904;2023-05-07T12:25:42;19.92;;;10.43;;
61188;SDS011;47054;39.716;2.904;2023-05-07T12:28:31;26.77;;;13.27;;
61188;SDS011;47054;39.716;2.904;2023-05-07T12:31:19;27.38;;;14.52;;
61188;SDS011;47054;39.716;2.904;2023-05-07T12:34:04;34.40;;;17.08;;
61188;SDS011;47054;39.716;2.904;2023-05-07T12:36:48;34.55;;;18.45;;
61188;SDS011;47054;39.716;2.904;2023-05-07T12:39:35;35.20;;;18.75;;
61188;SDS011;47054;39.716;2.904;2023-05-07T12:42:20;36.55;;;19.77;;
61188;SDS011;47054;39.716;2.904;2023-05-07T12:45:10;62.55;;;31.80;;
61188;SDS011;47054;39.716;2.904;2023-05-07T12:47:56;85.68;;;41.65;;
61188;SDS011;47054;39.716;2.904;2023-05-07T12:50:41;85.13;;;42.78;;
61188;SDS011;47054;39.716;2.904;2023-05-07T12:53:26;71.05;;;36.97;;
61188;SDS011;47054;39.716;2.904;2023-05-07T12:56:11;68.45;;;36.50;;
61188;SDS011;47054;39.716;2.904;2023-05-07T12:58:57;66.97;;;34.22;;
61188;SDS011;47054;39.716;2.904;2023-05-07T13:01:43;62.88;;;31.67;;
61188;SDS011;47054;39.716;2.904;2023-05-07T13:04:28;52.55;;;27.38;;
61188;SDS011;47054;39.716;2.904;2023-05-07T13:07:12;47.40;;;24.95;;
61188;SDS011;47054;39.716;2.904;2023-05-07T13:09:57;44.10;;;22.45;;
61188;SDS011;47054;39.716;2.904;2023-05-07T13:12:41;35.63;;;16.38;;
61188;SDS011;47054;39.716;2.904;2023-05-07T13:15:26;28.20;;;14.73;;
61188;SDS011;47054;39.716;2.904;2023-05-07T13:18:11;21.73;;;11.88;;
61188;SDS011;47054;39.716;2.904;2023-05-07T13:20:55;23.77;;;10.98;;
61188;SDS011;47054;39.716;2.904;2023-05-07T13:23:40;21.55;;;10.35;;
61188;SDS011;47054;39.716;2.904;2023-05-07T13:26:25;16.48;;;9.48;;
61188;SDS011;47054;39.716;2.904;2023-05-07T13:29:10;14.43;;;8.05;;
61188;SDS011;47054;39.716;2.904;2023-05-07T13:31:58;16.35;;;8.18;;
61188;SDS011;47054;39.716;2.904;2023-05-07T13:34:43;13.80;;;6.60;;
61188;SDS011;47054;39.716;2.904;2023-05-07T13:37:28;14.35;;;6.68;;
61188;SDS011;47054;39.716;2.904;2023-05-07T13:40:13;11.98;;;6.05;;
61188;SDS011;47054;39.716;2.904;2023-05-07T13:42:58;9.25;;;5.35;;
61188;SDS011;47054;39.716;2.904;2023-05-07T13:45:44;10.93;;;5.28;;
61188;SDS011;47054;39.716;2.904;2023-05-07T13:48:28;10.80;;;4.70;;
61188;SDS011;47054;39.716;2.904;2023-05-07T13:51:13;10.55;;;5.00;;
61188;SDS011;47054;39.716;2.904;2023-05-07T13:53:57;9.73;;;4.85;;
61188;SDS011;47054;39.716;2.904;2023-05-07T13:56:42;8.48;;;5.20;;
61188;SDS011;47054;39.716;2.904;2023-05-07T13:59:27;12.23;;;5.35;;
61188;SDS011;47054;39.716;2.904;2023-05-07T14:02:11;11.98;;;5.95;;
61188;SDS011;47054;39.716;2.904;2023-05-07T14:04:56;10.52;;;5.85;;
61188;SDS011;47054;39.716;2.904;2023-05-07T14:07:40;14.25;;;6.72;;
61188;SDS011;47054;39.716;2.904;2023-05-07T14:10:25;11.90;;;6.90;;
61188;SDS011;47054;39.716;2.904;2023-05-07T14:13:10;14.63;;;6.60;;
61188;SDS011;47054;39.716;2.904;2023-05-07T14:15:54;12.00;;;5.95;;
61188;SDS011;47054;39.716;2.904;2023-05-07T14:18:39;11.20;;;6.20;;
61188;SDS011;47054;39.716;2.904;2023-05-07T14:21:23;13.10;;;6.45;;
61188;SDS011;47054;39.716;2.904;2023-05-07T14:24:08;10.45;;;5.60;;
61188;SDS011;47054;39.716;2.904;2023-05-07T14:26:52;16.17;;;8.90;;
61188;SDS011;47054;39.716;2.904;2023-05-07T14:29:37;19.70;;;9.73;;
61188;SDS011;47054;39.716;2.904;2023-05-07T14:32:21;19.92;;;9.82;;
61188;SDS011;47054;39.716;2.904;2023-05-07T14:35:06;39.13;;;19.00;;
61188;SDS011;47054;39.716;2.904;2023-05-07T14:37:51;57.25;;;28.80;;
61188;SDS011;47054;39.716;2.904;2023-05-07T14:40:35;58.33;;;30.00;;
61188;SDS011;47054;39.716;2.904;2023-05-07T14:43:20;47.97;;;23.08;;
61188;SDS011;47054;39.716;2.904;2023-05-07T14:46:06;102.15;;;42.67;;
61188;SDS011;47054;39.716;2.904;2023-05-07T14:48:50;45.92;;;22.85;;
61188;SDS011;47054;39.716;2.904;2023-05-07T14:51:35;95.18;;;40.63;;
61188;SDS011;47054;39.716;2.904;2023-05-07T14:54:19;124.72;;;50.92;;
61188;SDS011;47054;39.716;2.904;2023-05-07T14:57:04;82.18;;;35.28;;
61188;SDS011;47054;39.716;2.904;2023-05-07T14:59:50;104.70;;;44.50;;
61188;SDS011;47054;39.716;2.904;2023-05-07T15:02:35;188.10;;;77.85;;
61188;SDS011;47054;39.716;2.904;2023-05-07T15:05:20;109.20;;;46.53;;
61188;SDS011;47054;39.716;2.904;2023-05-07T15:08:04;121.47;;;50.67;;
61188;SDS011;47054;39.716;2.904;2023-05-07T15:10:49;87.38;;;38.08;;
61188;SDS011;47054;39.716;2.904;2023-05-07T15:13:34;102.65;;;41.80;;
61188;SDS011;47054;39.716;2.904;2023-05-07T15:16:19;88.78;;;38.60;;
61188;SDS011;47054;39.716;2.904;2023-05-07T15:19:04;87.00;;;37.78;;
61188;SDS011;47054;39.716;2.904;2023-05-07T15:21:49;88.75;;;38.58;;
61188;SDS011;47054;39.716;2.904;2023-05-07T15:24:33;56.00;;;24.77;;
61188;SDS011;47054;39.716;2.904;2023-05-07T15:27:18;62.10;;;27.63;;
61188;SDS011;47054;39.716;2.904;2023-05-07T15:30:03;75.88;;;33.47;;
61188;SDS011;47054;39.716;2.904;2023-05-07T15:32:49;62.75;;;28.60;;
61188;SDS011;47054;39.716;2.904;2023-05-07T15:35:34;125.70;;;56.97;;
61188;SDS011;47054;39.716;2.904;2023-05-07T15:38:19;96.80;;;43.28;;
61188;SDS011;47054;39.716;2.904;2023-05-07T15:41:04;82.20;;;39.92;;
61188;SDS011;47054;39.716;2.904;2023-05-07T15:43:49;97.95;;;46.30;;
61188;SDS011;47054;39.716;2.904;2023-05-07T15:46:36;56.92;;;24.95;;
61188;SDS011;47054;39.716;2.904;2023-05-07T15:49:20;61.08;;;28.75;;
61188;SDS011;47054;39.716;2.904;2023-05-07T15:52:06;58.97;;;28.00;;
61188;SDS011;47054;39.716;2.904;2023-05-07T15:54:50;76.97;;;36.28;;
61188;SDS011;47054;39.716;2.904;2023-05-07T15:57:35;73.32;;;37.05;;
61188;SDS011;47054;39.716;2.904;2023-05-07T16:00:20;68.18;;;31.70;;
61188;SDS011;47054;39.716;2.904;2023-05-07T16:03:05;88.45;;;41.28;;
61188;SDS011;47054;39.716;2.904;2023-05-07T16:05:50;78.65;;;37.08;;
61188;SDS011;47054;39.716;2.904;2023-05-07T16:08:35;78.68;;;37.53;;
61188;SDS011;47054;39.716;2.904;2023-05-07T16:11:19;112.43;;;49.25;;
61188;SDS011;47054;39.716;2.904;2023-05-07T16:14:04;81.03;;;35.65;;
61188;SDS011;47054;39.716;2.904;2023-05-07T16:16:48;78.70;;;34.58;;
61188;SDS011;47054;39.716;2.904;2023-05-07T16:19:33;76.40;;;34.65;;
61188;SDS011;47054;39.716;2.904;2023-05-07T16:22:18;69.90;;;31.88;;
61188;SDS011;47054;39.716;2.904;2023-05-07T16:25:03;66.43;;;29.30;;
61188;SDS011;47054;39.716;2.904;2023-05-07T16:27:48;64.43;;;30.17;;
61188;SDS011;47054;39.716;2.904;2023-05-07T16:30:33;66.57;;;30.13;;
61188;SDS011;47054;39.716;2.904;2023-05-07T16:33:17;72.00;;;30.60;;
61188;SDS011;47054;39.716;2.904;2023-05-07T16:36:03;63.80;;;27.80;;
61188;SDS011;47054;39.716;2.904;2023-05-07T16:38:47;58.45;;;23.60;;
61188;SDS011;47054;39.716;2.904;2023-05-07T16:41:32;62.85;;;25.52;;
61188;SDS011;47054;39.716;2.904;2023-05-07T16:44:16;45.92;;;20.02;;
61188;SDS011;47054;39.716;2.904;2023-05-07T16:47:01;48.30;;;18.77;;
61188;SDS011;47054;39.716;2.904;2023-05-07T16:49:46;47.08;;;19.02;;